createdAt,value
2019-05-15T00:02:22.955Z,90.00
2019-05-15T00:04:53.817Z,89.80
2019-05-15T00:07:24.570Z,90.00
2019-05-15T00:09:55.447Z,90.00
2019-05-15T00:12:28.277Z,90.10
2019-05-15T00:14:58.240Z,90.00
2019-05-15T00:17:29.179Z,90.00
2019-05-15T00:20:00.404Z,89.90
2019-05-15T00:22:31.206Z,89.90
2019-05-15T00:25:01.942Z,89.90
2019-05-15T00:27:32.710Z,89.80
2019-05-15T00:30:03.483Z,89.70
2019-05-15T00:32:35.371Z,89.70
2019-05-15T00:35:09.343Z,89.70
2019-05-15T00:37:40.524Z,89.50
2019-05-15T00:40:11.957Z,89.30
2019-05-15T00:42:42.950Z,89.40
2019-05-15T00:45:13.946Z,89.30
2019-05-15T00:47:44.811Z,89.20
2019-05-15T00:50:18.125Z,89.20
2019-05-15T00:52:48.480Z,89.30
2019-05-15T00:55:39.548Z,89.20
2019-05-15T00:58:10.650Z,89.10
2019-05-15T01:00:43.810Z,88.90
2019-05-15T01:03:27.932Z,88.80
2019-05-15T01:05:58.976Z,88.80
2019-05-15T01:08:29.960Z,88.60
2019-05-15T01:11:00.973Z,88.50
2019-05-15T01:13:32.176Z,88.30
2019-05-15T01:16:03.108Z,88.20
2019-05-15T01:18:34.311Z,88.10
2019-05-15T01:21:05.231Z,87.90
2019-05-15T01:23:36.075Z,88.00
2019-05-15T01:26:08.296Z,87.90
2019-05-15T01:28:39.352Z,87.80
2019-05-15T01:31:10.131Z,87.90
2019-05-15T01:33:41.130Z,87.70
2019-05-15T01:36:12.091Z,87.50
2019-05-15T01:38:42.946Z,87.20
2019-05-15T01:41:13.787Z,87.00
2019-05-15T01:43:45.668Z,86.90
2019-05-15T01:46:18.894Z,86.90
2019-05-15T01:48:49.317Z,86.70
2019-05-15T01:51:20.509Z,86.30
2019-05-15T01:53:52.250Z,86.10
2019-05-15T01:56:23.199Z,85.80
2019-05-15T01:58:54.164Z,85.50
2019-05-15T02:01:25.021Z,85.00
2019-05-15T02:03:55.798Z,84.90
2019-05-15T02:06:28.462Z,84.80
2019-05-15T02:08:58.916Z,84.60
2019-05-15T02:11:29.817Z,84.30
2019-05-15T02:14:00.819Z,83.70
2019-05-15T02:16:52.488Z,83.70
2019-05-15T02:19:28.596Z,83.00
2019-05-15T02:21:59.697Z,82.90
2019-05-15T02:24:31.371Z,82.50
2019-05-15T02:27:03.368Z,82.50
2019-05-15T02:29:34.935Z,82.20
2019-05-15T02:32:09.917Z,82.20
2019-05-15T02:34:39.992Z,82.20
2019-05-15T02:37:11.008Z,81.80
2019-05-15T02:39:45.231Z,81.60
2019-05-15T02:42:19.191Z,81.70
2019-05-15T02:44:50.756Z,81.50
2019-05-15T02:47:23.991Z,81.30
2019-05-15T02:49:55.267Z,80.90
2019-05-15T02:52:29.282Z,80.80
2019-05-15T02:54:59.955Z,80.70
2019-05-15T02:57:32.621Z,80.00
2019-05-15T03:00:03.543Z,78.90
2019-05-15T03:02:44.483Z,78.20
2019-05-15T03:05:40.258Z,78.50
2019-05-15T03:08:09.287Z,78.60
2019-05-15T03:10:40.531Z,78.70
2019-05-15T03:13:11.422Z,78.40
2019-05-15T03:15:42.263Z,78.80
2019-05-15T03:18:13.286Z,78.70
2019-05-15T03:20:44.050Z,78.60
2019-05-15T03:23:14.865Z,78.60
2019-05-15T03:25:48.900Z,77.80
2019-05-15T03:28:19.116Z,78.20
2019-05-15T03:31:15.816Z,78.00
2019-05-15T03:33:27.735Z,77.50
2019-05-15T03:35:55.737Z,77.30
2019-05-15T03:38:29.656Z,77.30
2019-05-15T03:41:00.457Z,76.00
2019-05-15T03:43:31.409Z,75.50
2019-05-15T03:46:02.211Z,76.20
2019-05-15T03:48:33.086Z,75.90
2019-05-15T03:51:04.536Z,75.10
2019-05-15T03:53:35.483Z,75.20
2019-05-15T03:56:09.537Z,74.90
2019-05-15T03:58:40.196Z,73.50
2019-05-15T04:01:28.481Z,73.00
2019-05-15T04:03:44.331Z,73.80
2019-05-15T04:06:19.038Z,73.90
2019-05-15T04:08:49.575Z,73.40
2019-05-15T04:11:20.539Z,73.10
2019-05-15T04:13:51.698Z,72.90
2019-05-15T04:16:22.513Z,72.90
2019-05-15T04:18:53.205Z,73.30
2019-05-15T04:21:24.158Z,72.60
2019-05-15T04:23:58.792Z,72.20
2019-05-15T04:26:30.853Z,71.50
2019-05-15T04:29:01.577Z,72.00
2019-05-15T04:31:50.196Z,71.80
2019-05-15T04:34:04.593Z,71.90
2019-05-15T04:36:35.531Z,72.00
2019-05-15T04:39:09.860Z,70.80
2019-05-15T04:41:41.081Z,71.60
2019-05-15T04:44:11.706Z,72.40
2019-05-15T04:46:42.725Z,72.40
2019-05-15T04:49:19.072Z,73.10
2019-05-15T04:51:49.649Z,73.70
2019-05-15T04:54:20.841Z,74.20
2019-05-15T04:56:52.046Z,74.30
2019-05-15T04:59:25.943Z,74.40
2019-05-15T05:02:12.905Z,74.60
2019-05-15T05:04:33.020Z,74.70
2019-05-15T05:07:04.073Z,74.70
2019-05-15T05:09:34.787Z,74.70
2019-05-15T05:12:08.400Z,74.80
2019-05-15T05:14:39.076Z,74.80
2019-05-15T05:17:10.439Z,75.10
2019-05-15T05:19:42.054Z,75.50
2019-05-15T05:22:13.007Z,75.80
2019-05-15T05:24:44.312Z,76.10
2019-05-15T05:27:15.404Z,76.30
2019-05-15T05:29:48.046Z,76.60
2019-05-15T05:32:31.395Z,76.80
2019-05-15T05:34:50.866Z,77.00
2019-05-15T05:37:21.968Z,77.10
2019-05-15T05:39:52.709Z,77.20
2019-05-15T05:42:23.757Z,77.30
2019-05-15T05:44:54.702Z,78.00
2019-05-15T05:47:25.520Z,79.80
2019-05-15T05:49:58.160Z,79.60
2019-05-15T05:52:28.924Z,79.20
2019-05-15T05:54:59.895Z,78.80
2019-05-15T05:57:30.820Z,78.90
2019-05-15T06:00:01.725Z,78.80
2019-05-15T06:02:44.722Z,79.70
2019-05-15T06:05:07.769Z,80.80
2019-05-15T06:07:38.653Z,81.10
2019-05-15T06:10:10.289Z,81.60
2019-05-15T06:12:41.158Z,81.60
2019-05-15T06:15:12.715Z,81.80
2019-05-15T06:17:43.643Z,82.90
2019-05-15T06:20:15.430Z,82.50
2019-05-15T06:22:47.936Z,82.80
2019-05-15T06:25:19.737Z,83.00
2019-05-15T06:27:50.929Z,82.90
2019-05-15T06:30:27.489Z,82.80
2019-05-15T06:33:05.694Z,83.20
2019-05-15T06:35:31.443Z,83.30
2019-05-15T06:38:02.826Z,84.20
2019-05-15T06:40:33.520Z,84.10
2019-05-15T06:43:04.560Z,83.90
2019-05-15T06:45:58.279Z,84.00
2019-05-15T06:48:28.866Z,83.70
2019-05-15T06:51:00.143Z,83.40
2019-05-15T06:53:31.550Z,83.10
2019-05-15T06:56:02.595Z,82.40
2019-05-15T06:58:33.611Z,82.50
2019-05-15T07:01:04.657Z,82.60
2019-05-15T07:03:38.925Z,82.70
2019-05-15T07:06:09.440Z,83.20
2019-05-15T07:08:40.883Z,83.60
2019-05-15T07:11:12.047Z,84.20
2019-05-15T07:13:42.787Z,84.50
2019-05-15T07:16:13.660Z,84.80
2019-05-15T07:18:44.329Z,84.90
2019-05-15T07:21:18.201Z,85.10
2019-05-15T07:23:49.584Z,85.30
2019-05-15T07:26:19.749Z,85.10
2019-05-15T07:28:51.580Z,85.30
2019-05-15T07:31:22.263Z,85.20
2019-05-15T07:33:53.138Z,85.40
2019-05-15T07:36:24.808Z,86.70
2019-05-15T07:38:57.826Z,86.10
2019-05-15T07:41:28.443Z,85.80
2019-05-15T07:43:59.323Z,86.20
2019-05-15T07:46:34.077Z,86.40
2019-05-15T07:49:05.107Z,86.30
2019-05-15T07:51:37.992Z,86.20
2019-05-15T07:54:09.428Z,86.40
2019-05-15T07:56:41.249Z,87.20
2019-05-15T07:59:12.120Z,86.80
2019-05-15T08:01:42.777Z,86.80
2019-05-15T08:04:25.070Z,86.90
2019-05-15T08:06:46.062Z,86.90
2019-05-15T08:09:19.271Z,87.00
2019-05-15T08:11:50.195Z,86.90
2019-05-15T08:14:21.162Z,87.40
2019-05-15T08:16:52.238Z,88.40
2019-05-15T08:19:23.426Z,88.20
2019-05-15T08:21:54.949Z,88.50
2019-05-15T08:24:29.534Z,88.30
2019-05-15T08:26:58.247Z,87.70
2019-05-15T08:29:29.217Z,87.50
2019-05-15T08:32:00.626Z,86.90
2019-05-15T08:34:34.745Z,86.40
2019-05-15T08:37:07.837Z,86.10
2019-05-15T08:39:38.301Z,85.80
2019-05-15T08:42:10.220Z,85.00
2019-05-15T08:44:41.084Z,84.20
2019-05-15T08:47:12.112Z,83.10
2019-05-15T08:49:44.921Z,82.20
2019-05-15T08:52:22.284Z,82.40
2019-05-15T08:54:53.861Z,82.20
2019-05-15T08:57:34.498Z,82.40
2019-05-15T09:00:09.291Z,81.90
2019-05-15T09:02:39.880Z,81.10
2019-05-15T09:05:12.355Z,80.90
2019-05-15T09:07:44.344Z,80.90
2019-05-15T09:10:18.192Z,81.00
2019-05-15T09:12:50.288Z,81.10
2019-05-15T09:15:21.841Z,81.10
2019-05-15T09:18:07.712Z,81.40
2019-05-15T09:20:25.468Z,81.60
2019-05-15T09:22:58.279Z,81.90
2019-05-15T09:25:29.572Z,82.00
2019-05-15T09:28:01.323Z,82.00
2019-05-15T09:30:33.921Z,82.10
2019-05-15T09:33:08.607Z,82.20
2019-05-15T09:35:41.089Z,82.30
2019-05-15T09:38:15.061Z,82.40
2019-05-15T09:40:58.296Z,82.50
2019-05-15T09:43:33.239Z,82.50
2019-05-15T09:46:10.319Z,82.60
2019-05-15T09:48:40.783Z,83.00
2019-05-15T09:51:12.694Z,83.40
2019-05-15T09:53:43.609Z,83.80
2019-05-15T09:56:15.830Z,83.30
2019-05-15T09:58:48.621Z,82.60
2019-05-15T10:01:19.648Z,82.50
2019-05-15T10:03:50.876Z,82.40
2019-05-15T10:06:22.540Z,82.20
2019-05-15T10:08:54.598Z,82.10
2019-05-15T10:11:25.382Z,81.70
2019-05-15T10:13:58.378Z,81.10
2019-05-15T10:16:28.877Z,80.80
2019-05-15T10:18:59.795Z,80.20
2019-05-15T10:21:32.573Z,79.80
2019-05-15T10:24:02.801Z,79.70
2019-05-15T10:26:33.657Z,79.60
2019-05-15T10:29:05.041Z,79.40
2019-05-15T10:31:38.755Z,79.20
2019-05-15T10:34:09.208Z,79.20
2019-05-15T10:36:40.404Z,79.50
2019-05-15T10:39:11.427Z,79.50
2019-05-15T10:41:42.462Z,79.40
2019-05-15T10:44:13.371Z,79.40
2019-05-15T10:46:44.097Z,79.40
2019-05-15T10:49:14.865Z,79.30
2019-05-15T10:51:45.816Z,79.20
2019-05-15T10:54:19.027Z,79.20
2019-05-15T10:56:48.853Z,79.30
2019-05-15T10:59:20.027Z,79.30
2019-05-15T11:01:50.771Z,79.40
2019-05-15T11:04:22.762Z,80.00
2019-05-15T11:06:53.598Z,79.50
2019-05-15T11:09:24.494Z,79.50
2019-05-15T11:11:58.171Z,79.50
2019-05-15T11:14:28.653Z,79.60
2019-05-15T11:17:00.004Z,79.60
2019-05-15T11:19:35.949Z,79.70
2019-05-15T11:22:22.116Z,79.90
2019-05-15T11:24:53.181Z,79.90
2019-05-15T11:27:24.149Z,80.10
2019-05-15T11:29:55.117Z,80.20
2019-05-15T11:32:26.037Z,80.40
2019-05-15T11:34:58.268Z,80.60
2019-05-15T11:37:29.366Z,80.80
2019-05-15T11:40:00.184Z,81.00
2019-05-15T11:42:30.999Z,81.10
2019-05-15T11:45:01.867Z,81.30
2019-05-15T11:47:32.864Z,81.40
2019-05-15T11:50:03.727Z,81.60
2019-05-15T11:52:36.635Z,81.90
2019-05-15T11:55:08.541Z,81.90
2019-05-15T11:57:46.986Z,81.90
2019-05-15T12:00:17.230Z,82.30
2019-05-15T12:02:45.572Z,82.40
2019-05-15T12:05:18.281Z,82.60
2019-05-15T12:07:49.037Z,82.60
2019-05-15T12:10:19.919Z,82.70
2019-05-15T12:12:50.823Z,82.90
2019-05-15T12:15:21.847Z,83.10
2019-05-15T12:17:52.583Z,83.10
2019-05-15T12:20:24.287Z,83.30
2019-05-15T12:22:55.018Z,83.30
2019-05-15T12:25:29.303Z,83.80
2019-05-15T12:27:59.615Z,83.90
2019-05-15T12:30:30.578Z,83.90
2019-05-15T12:33:01.490Z,83.90
2019-05-15T12:35:32.188Z,84.10
2019-05-15T12:38:03.199Z,83.90
2019-05-15T13:00:52.883Z,84.40
2019-05-15T13:03:23.644Z,84.50
2019-05-15T13:05:54.375Z,84.60
2019-05-15T13:08:25.294Z,84.60
2019-05-15T13:10:56.042Z,84.60
2019-05-15T13:13:28.345Z,85.00
2019-05-15T13:15:59.192Z,85.10
2019-05-15T13:18:30.167Z,84.90
2019-05-15T13:21:00.864Z,84.70
2019-05-15T13:23:31.757Z,84.60
2019-05-15T13:26:02.672Z,84.50
2019-05-15T13:28:33.285Z,84.40
2019-05-15T13:31:04.193Z,84.50
2019-05-15T13:33:34.988Z,84.50
2019-05-15T13:36:08.711Z,84.40
2019-05-15T13:38:38.685Z,84.50
2019-05-15T13:41:10.154Z,84.50
2019-05-15T13:43:41.257Z,84.50
2019-05-15T13:46:12.250Z,84.60
2019-05-15T13:48:43.155Z,84.70
2019-05-15T13:51:14.058Z,84.70
2019-05-15T13:53:44.803Z,84.50
2019-05-15T13:56:15.425Z,84.60
2019-05-15T13:58:48.122Z,84.60
2019-05-15T14:01:19.478Z,84.70
2019-05-15T14:03:50.400Z,84.50
2019-05-15T14:06:21.221Z,84.50
2019-05-15T14:08:52.155Z,84.70
2019-05-15T14:11:22.977Z,84.50
2019-05-15T14:13:53.785Z,84.60
2019-05-15T14:16:24.774Z,84.50
2019-05-15T14:18:55.461Z,84.50
2019-05-15T14:21:28.439Z,84.50
2019-05-15T14:24:01.396Z,84.60
2019-05-15T14:26:30.734Z,84.70
2019-05-15T14:29:01.812Z,84.90
2019-05-15T14:31:32.808Z,84.70
2019-05-15T14:34:03.617Z,84.70
2019-05-15T14:36:34.402Z,84.90
2019-05-15T14:39:08.075Z,85.00
2019-05-15T14:41:38.583Z,85.00
2019-05-15T14:44:16.816Z,85.10
2019-05-15T14:46:41.733Z,85.20
2019-05-15T14:49:12.703Z,85.30
2019-05-15T14:51:44.040Z,85.20
2019-05-15T14:54:14.712Z,85.40
2019-05-15T14:56:45.618Z,85.30
2019-05-15T14:59:16.602Z,85.40
2019-05-15T15:01:48.729Z,85.50
2019-05-15T15:04:19.726Z,85.50
2019-05-15T15:06:50.691Z,85.70
2019-05-15T15:09:21.217Z,86.70
2019-05-15T15:11:51.997Z,86.00
2019-05-15T15:14:22.991Z,86.20
2019-05-15T15:16:53.806Z,86.20
2019-05-15T15:19:24.877Z,86.20
2019-05-15T15:21:57.909Z,87.30
2019-05-15T15:24:27.736Z,86.40
2019-05-15T15:26:58.857Z,86.80
2019-05-15T15:29:29.956Z,87.10
2019-05-15T15:32:00.902Z,87.10
2019-05-15T15:34:31.646Z,87.00
2019-05-15T15:37:02.505Z,87.10
2019-05-15T15:39:33.244Z,87.20
2019-05-15T15:42:04.468Z,87.20
2019-05-15T15:44:37.881Z,87.10
2019-05-15T15:47:08.621Z,87.00
2019-05-15T15:49:39.492Z,87.10
2019-05-15T15:52:10.480Z,87.10
2019-05-15T15:54:41.395Z,87.30
2019-05-15T15:57:13.036Z,87.10
2019-05-15T15:59:43.889Z,87.10
2019-05-15T16:02:14.856Z,87.30
2019-05-15T16:04:45.607Z,87.20
2019-05-15T16:07:17.815Z,87.40
2019-05-15T16:09:48.564Z,87.70
2019-05-15T16:12:19.512Z,87.50
2019-05-15T16:14:50.131Z,87.30
2019-05-15T16:17:20.844Z,87.10
2019-05-15T16:19:51.656Z,87.20
2019-05-15T16:22:22.565Z,87.10
2019-05-15T16:24:53.801Z,87.50
2019-05-15T16:27:24.581Z,88.10
2019-05-15T16:29:55.196Z,87.40
2019-05-15T16:32:28.793Z,87.50
2019-05-15T16:34:58.737Z,87.70
2019-05-15T16:37:29.970Z,87.70
2019-05-15T16:40:00.914Z,87.70
2019-05-15T16:42:31.726Z,87.80
2019-05-15T16:45:02.471Z,88.00
2019-05-15T16:47:33.214Z,88.00
2019-05-15T16:50:03.958Z,88.20
2019-05-15T16:52:34.755Z,88.40
2019-05-15T16:55:09.074Z,88.60
2019-05-15T16:57:39.387Z,88.50
2019-05-15T17:00:12.072Z,88.90
2019-05-15T17:02:42.945Z,88.80
2019-05-15T17:05:13.990Z,88.80
2019-05-15T17:07:45.051Z,88.50
2019-05-15T17:10:15.814Z,88.60
2019-05-15T17:12:49.046Z,88.90
2019-05-15T17:15:19.199Z,89.00
2019-05-15T17:17:50.339Z,89.00
2019-05-15T17:20:21.398Z,89.10
2019-05-15T17:22:52.240Z,89.30
2019-05-15T17:25:23.269Z,89.70
2019-05-15T17:27:54.270Z,89.40
2019-05-15T17:30:26.088Z,89.40
2019-05-15T17:32:56.731Z,89.30
2019-05-15T17:35:27.785Z,89.30
2019-05-15T17:37:58.812Z,89.10
2019-05-15T17:40:29.560Z,89.30
2019-05-15T17:43:02.641Z,89.20
2019-05-15T17:45:32.725Z,89.20
2019-05-15T17:48:03.622Z,89.10
2019-05-15T17:50:48.253Z,89.20
2019-05-15T17:53:06.741Z,89.40
2019-05-15T17:55:38.448Z,89.40
2019-05-15T17:58:09.408Z,89.90
2019-05-15T18:00:40.599Z,89.80
2019-05-15T18:03:11.330Z,89.80
2019-05-15T18:05:42.207Z,90.00
2019-05-15T18:08:13.195Z,90.10
2019-05-15T18:10:44.732Z,90.10
2019-05-15T18:13:15.764Z,90.10
2019-05-15T18:15:48.757Z,90.10
2019-05-15T18:18:19.219Z,90.10
2019-05-15T18:20:49.937Z,90.10
2019-05-15T18:23:23.483Z,90.10
2019-05-15T18:25:53.011Z,90.20
2019-05-15T18:28:23.699Z,90.20
2019-05-15T18:30:54.696Z,90.20
2019-05-15T18:33:27.857Z,90.20
2019-05-15T18:35:58.240Z,90.20
2019-05-15T18:38:29.067Z,90.10
2019-05-15T18:41:00.245Z,90.20
2019-05-15T18:43:31.151Z,90.20
2019-05-15T18:46:02.035Z,90.20
2019-05-15T18:48:32.995Z,90.10
2019-05-15T18:51:03.683Z,90.00
2019-05-15T18:53:34.382Z,89.90
2019-05-15T18:56:05.617Z,90.00
2019-05-15T18:58:38.111Z,90.00
2019-05-15T19:01:09.332Z,90.10
2019-05-15T19:03:40.657Z,90.10
2019-05-15T19:06:11.421Z,90.10
2019-05-15T19:08:42.337Z,90.10
2019-05-15T19:11:13.344Z,90.10
2019-05-15T19:13:44.285Z,90.10
2019-05-15T19:16:15.197Z,90.10
2019-05-15T19:18:47.909Z,90.10
2019-05-15T19:21:18.346Z,90.20
2019-05-15T19:23:49.475Z,90.20
2019-05-15T19:26:20.454Z,90.20
2019-05-15T19:28:51.311Z,90.20
2019-05-15T19:31:26.815Z,90.20
2019-05-15T19:33:54.490Z,90.20
2019-05-15T19:36:27.601Z,90.20
2019-05-15T19:38:57.470Z,90.30
2019-05-15T19:41:28.868Z,90.30
2019-05-15T19:43:59.947Z,90.40
2019-05-15T19:46:31.093Z,90.50
2019-05-15T19:49:01.767Z,90.50
2019-05-15T19:51:32.933Z,90.60
2019-05-15T19:54:03.811Z,90.50
2019-05-15T19:56:34.562Z,90.50
2019-05-15T19:59:05.686Z,90.60
2019-05-15T20:01:38.234Z,90.30
2019-05-15T20:04:08.737Z,90.70
2019-05-15T20:06:39.816Z,90.80
2019-05-15T20:09:10.847Z,90.80
2019-05-15T20:11:42.046Z,90.80
2019-05-15T20:14:12.888Z,90.70
2019-05-15T20:16:43.468Z,90.70
2019-05-15T20:19:14.325Z,90.80
2019-05-15T20:21:45.328Z,90.80
2019-05-15T20:24:18.063Z,90.70
2019-05-15T20:26:48.621Z,90.70
2019-05-15T20:29:19.697Z,90.70
2019-05-15T20:31:50.662Z,90.70
2019-05-15T20:34:21.344Z,90.60
2019-05-15T20:36:52.353Z,90.50
2019-05-15T20:39:23.280Z,90.60
2019-05-15T20:41:53.985Z,90.60
2019-05-15T20:44:26.530Z,90.70
2019-05-15T20:46:58.985Z,90.80
2019-05-15T20:49:29.471Z,90.80
2019-05-15T20:52:00.426Z,90.80
2019-05-15T20:54:31.130Z,90.80
2019-05-15T20:57:01.775Z,90.80
2019-05-15T20:59:32.524Z,90.80
2019-05-15T21:02:03.503Z,90.80
2019-05-15T21:04:34.485Z,90.70
2019-05-15T21:07:05.498Z,90.70
2019-05-15T21:09:38.951Z,90.80
2019-05-15T21:12:09.841Z,90.80
2019-05-15T21:14:40.745Z,90.80
2019-05-15T21:17:11.607Z,90.90
2019-05-15T21:19:42.466Z,90.80
2019-05-15T21:22:13.293Z,90.90
2019-05-15T21:24:44.246Z,90.90
2019-05-15T21:27:14.869Z,90.90
2019-05-15T21:29:45.533Z,90.90
2019-05-15T21:32:19.594Z,90.90
2019-05-15T21:34:49.894Z,90.80
2019-05-15T21:37:20.716Z,90.80
2019-05-15T21:39:51.313Z,90.80
2019-05-15T21:42:22.439Z,90.80
2019-05-15T21:44:53.205Z,90.90
2019-05-15T21:47:24.388Z,90.90
2019-05-15T21:49:55.300Z,90.80
2019-05-15T21:52:26.144Z,90.80
2019-05-15T21:54:59.431Z,90.90
2019-05-15T21:57:36.233Z,90.90
2019-05-15T22:00:02.490Z,90.90
2019-05-15T22:02:33.467Z,90.90
2019-05-15T22:05:04.598Z,90.90
2019-05-15T22:07:35.289Z,91.00
2019-05-15T22:10:10.603Z,91.00
2019-05-15T22:12:40.188Z,91.10
2019-05-15T22:15:11.427Z,91.10
2019-05-15T22:17:42.378Z,91.00
2019-05-15T22:20:14.516Z,91.00
2019-05-15T22:22:45.351Z,90.90
2019-05-15T22:25:18.760Z,91.00
2019-05-15T22:27:49.630Z,91.00
